Wurst Tri Ever 2015 Results

[ Tri ] [ Swim/Bike] [ Swim/Run ] [ Bike/Run ]
2015 Wurst Tri Ever
Triathlon Results
# of finishers: 286
# of female finishers: 136
# of male finishers: 140
10 relay teams
Overall Swim
(400M)
T1 KOH Bike
(14m)
T1 Run
(2.7m)
Age Group
Pos
Gender
Pos
Overall
Pos
Name Race No Finish
Time
Swim T1 KoH Bike Cycle Pace T2 Run Run Pace
Overall
Female
1 1 11 Sara DASSO 19 01:12:38 00:07:21 00:00:36 00:02:43 00:44:08 19.0 m/hr 00:00:45 00:19:45 7:19 min/m
Male
1 1 1 Dustin SKOGMAN 25 01:06:00 00:07:10 00:00:41 00:02:40 00:41:31 20.2 m/hr 00:00:29 00:16:07 5:58 min/m
Masters
Female
1 2 20 Jeanne HOFFMAN 37 01:19:21 00:09:15 00:00:57 00:02:47 00:48:02 17.5 m/hr 00:00:51 00:20:14 7:29 min/m
Male
1 2 2 Eloy GONZALEZ 35 01:08:54 00:08:20 00:01:03 00:02:41 00:42:33 19.7 m/hr 00:00:34 00:16:21 6:03 min/m
Ages 19 and Under
Female
1 106 238 Darlene FUNK 289 02:03:03 00:12:24 00:09:07 00:04:08 01:09:34 12.1 m/hr 00:03:58 00:27:57 10:21 min/m
2 120 260 Christie KRAMER 71 02:12:17 00:10:29 00:01:33 00:05:27 01:19:46 10.5 m/hr 00:01:59 00:38:29 14:15 min/m
Male
1 24 26 Max VOSS 3 01:21:10 00:06:33 00:01:09 00:03:19 00:49:22 17.0 m/hr 00:01:05 00:22:58 8:30 min/m
2 36 45 Jared MILLER 331 01:27:00 00:07:32 00:01:04 00:03:13 00:54:48 15.3 m/hr 00:00:33 00:23:01 8:31 min/m
3 38 47 Eddie BAYOUTH 5 01:27:17 00:07:48 00:01:17 00:02:56 00:54:44 15.3 m/hr 00:00:53 00:22:34 8:21 min/m
4 149 285 Zeke SANDERS 293 02:37:42 00:12:38 00:04:11 00:06:15 01:42:16 8.2 m/hr 00:01:23 00:37:11 13:46 min/m
Ages 20 - 24
Female
1 9 44 Kelsey TOMLIN 2 01:26:56 00:06:31 00:01:56 00:03:19 00:56:01 15.0 m/hr 00:00:28 00:21:58 8:08 min/m
2 35 114 Elysia COWLE 56 01:39:07 00:08:46 00:01:56 00:04:03 01:05:03 12.9 m/hr 00:01:18 00:22:03 8:10 min/m
3 39 122 Sidney MONTERO 24 01:40:02 00:11:06 00:01:52 00:03:53 01:03:28 13.2 m/hr 00:01:23 00:22:10 8:12 min/m
4 93 219 Claudia ZAVALA 135 01:57:36 00:10:47 00:02:26 00:05:14 01:15:56 11.1 m/hr 00:01:04 00:27:20 10:07 min/m
5 118 258 Amber STERRIKER 266 02:11:49 00:15:57 00:01:42 00:05:36 01:12:33 11.6 m/hr 00:01:07 00:40:28 14:59 min/m
Male
1 11 12 Justice PHILLIPS 78 01:13:38 00:08:53 00:00:38 00:02:58 00:46:07 18.2 m/hr 00:00:34 00:17:25 6:27 min/m
2 54 71 Jacob BURZYNSKI 53 01:32:17 00:10:10 00:02:31 00:03:13 00:55:26 15.1 m/hr 00:00:41 00:23:27 8:41 min/m
3 78 108 Benjamin COLE 267 01:38:42 00:15:26 00:03:43 00:03:25 00:56:15 14.9 m/hr 00:00:47 00:22:29 8:19 min/m
Ages 25 - 29
Female
1 3 30 Susan SEABORNE 164 01:23:25 00:09:49 00:01:15 00:02:41 00:49:31 17.0 m/hr 00:00:44 00:22:04 8:10 min/m
2 5 38 Becca TOMLIN 6 01:25:51 00:07:06 00:01:33 00:03:03 00:55:21 15.2 m/hr 00:00:49 00:21:00 7:46 min/m
3 11 49 Kate LAING 222 01:27:57 00:08:47 00:01:54 00:04:10 00:54:20 15.5 m/hr 00:01:29 00:21:25 7:56 min/m
4 13 59 Kerri DURAND 59 01:30:05 00:09:09 00:01:24 00:04:02 00:58:00 14.5 m/hr 00:01:19 00:20:11 7:28 min/m
5 17 67 Kaitlyn BARNHILL 306 01:31:30 00:10:46 00:01:52 00:03:07 00:55:57 15.0 m/hr 00:01:13 00:21:40 8:01 min/m
6 20 75 Kaelin PELTIER 120 01:34:04 00:10:42 00:01:31 00:03:38 00:58:20 14.4 m/hr 00:00:40 00:22:49 8:27 min/m
7 37 117 Haley FIELD 370 01:39:28 00:09:11 00:01:49 00:04:39 01:05:24 12.8 m/hr 00:00:52 00:22:10 8:12 min/m
8 41 126 Caitline NYKIEL 286 01:40:37 00:10:13 00:02:38 00:04:12 01:03:45 13.2 m/hr 00:01:13 00:22:45 8:25 min/m
9 52 147 Charisma TUCKER 144 01:42:58 00:13:21 00:02:42 00:05:31 01:01:26 13.7 m/hr 00:01:57 00:23:30 8:42 min/m
10 55 152 Gail FERRY 136 01:43:52 00:10:48 00:04:38 00:03:25 00:59:43 14.1 m/hr 00:01:56 00:26:46 9:55 min/m
11 61 161 Dagny LARSON 223 01:45:39 00:12:04 00:02:28 00:03:46 01:04:35 13.0 m/hr 00:00:49 00:25:40 9:30 min/m
12 67 170 Lauren MASSEY 227 01:47:27 00:09:37 00:02:48 00:04:14 01:08:37 12.2 m/hr 00:01:09 00:25:14 9:20 min/m
13 75 187 Joy PFANNER 132 01:51:17 00:13:28 00:04:24 00:04:22 01:01:54 13.6 m/hr 00:03:23 00:28:05 10:24 min/m
14 76 189 Valerie KELLUM 70 01:51:20 00:13:08 00:02:46 00:04:20 01:03:15 13.3 m/hr 00:01:30 00:30:38 11:21 min/m
15 90 214 Courtney STANLEY 301 01:56:46 00:12:53 00:03:39 00:04:29 01:03:44 13.2 m/hr 00:01:52 00:34:35 12:48 min/m
16 96 224 Lacey TEW 295 01:59:14 00:15:02 00:04:18 00:05:26 01:13:31 11.4 m/hr 00:01:02 00:25:19 9:22 min/m
17 99 231 Melissa RICHARDS 83 02:01:34 00:14:39 00:02:02 00:04:46 01:10:45 11.9 m/hr 00:01:06 00:33:00 12:13 min/m
18 105 237 Rachel KYLE 221 02:02:46 00:10:19 00:02:14 00:05:39 01:22:46 10.1 m/hr 00:00:51 00:26:34 9:50 min/m
19 109 242 Keely SURPRENANT 248 02:03:31 00:11:57 00:05:18 00:05:39 01:14:00 11.4 m/hr 00:02:04 00:30:10 11:10 min/m
20 110 243 Lynda AYRES 287 02:04:47 00:14:24 00:06:57 00:05:38 01:09:29 12.1 m/hr 00:04:06 00:29:48 11:02 min/m
21 111 249 Erin SHEFFER 165 02:07:03 00:10:50 00:03:48 00:05:32 01:20:20 10.5 m/hr 00:01:04 00:30:59 11:28 min/m
22 114 252 Anna SPENCER 345 02:07:25 00:16:11 00:04:49 00:05:29 01:13:49 11.4 m/hr 00:01:06 00:31:28 11:39 min/m
23 119 259 Courtney BRYSON 51 02:12:07 00:12:21 00:02:34 00:06:03 01:16:50 10.9 m/hr 00:02:20 00:38:00 14:04 min/m
24 121 262 Stephanie MORALES 365 02:13:31 00:12:33 00:01:57 00:06:06 01:20:03 10.5 m/hr 00:02:51 00:36:06 13:22 min/m
25 125 268 Samantha HEWITT 212 02:18:01 00:12:11 00:03:59 00:05:03 01:23:05 10.1 m/hr 00:02:02 00:36:43 13:36 min/m
26 128 271 Jaclyn FREEMAN 208 02:21:19 00:11:16 00:04:15 00:06:00 01:13:07 11.5 m/hr 00:22:18 00:30:21 11:14 min/m
Male
1 22 24 Maxey BUCHWALD 52 01:20:32 00:08:59 00:00:43 00:02:53 00:49:08 17.1 m/hr 00:00:41 00:20:59 7:46 min/m
2 39 50 James LONGVILLE 224 01:28:29 00:11:38 00:02:23 00:03:06 00:55:27 15.1 m/hr 00:00:24 00:18:34 6:52 min/m
3 44 56 Christopher METZGER 113 01:29:51 00:08:43 00:01:29 00:03:43 00:56:46 14.8 m/hr 00:01:10 00:21:42 8:02 min/m
4 51 68 Irvin OROZCO 130 01:31:32 00:11:10 00:01:44 00:03:16 00:51:56 16.2 m/hr 00:01:56 00:24:44 9:09 min/m
5 55 74 Sam BRUMLEVE 195 01:33:13 00:11:03 00:02:27 00:03:28 00:58:03 14.5 m/hr 00:00:46 00:20:52 7:43 min/m
6 67 92 Jd SPENCER 346 01:36:30 00:12:02 00:03:38 00:03:34 00:56:58 14.7 m/hr 00:01:35 00:22:15 8:14 min/m
7 79 110 James FIELD 204 01:38:49 00:09:33 00:01:53 00:03:59 01:00:35 13.9 m/hr 00:00:51 00:25:56 9:36 min/m
8 88 130 Miles KELLUM 69 01:41:06 00:10:30 00:03:24 00:03:32 00:57:48 14.5 m/hr 00:01:48 00:27:34 10:12 min/m
9 105 173 Cory HOUSTON 373 01:48:53 00:14:01 00:06:31 00:03:40 01:05:29 12.8 m/hr 00:01:29 00:21:20 7:54 min/m
10 107 176 Corey BROWN 274 01:49:30 00:12:24 00:04:41 00:04:24 01:07:43 12.4 m/hr 00:00:59 00:23:40 8:46 min/m
11 117 198 Jeremiah HILLEBRAND 126 01:52:58 00:16:54 00:03:25 00:04:55 01:02:00 13.5 m/hr 00:00:54 00:29:42 11:00 min/m
12 126 217 Brian ENGLE 277 01:57:15 00:13:29 00:02:51 00:04:39 01:09:37 12.1 m/hr 00:01:03 00:30:14 11:11 min/m
13 129 226 Michael TULLY 179 02:00:00 00:13:42 00:04:37 00:05:30 01:15:17 11.2 m/hr 00:01:13 00:25:09 9:19 min/m
14 130 228 Dakota STIPES 260 02:00:20 00:17:38 00:05:10 00:05:08 01:09:24 12.1 m/hr 00:00:57 00:27:09 10:03 min/m
15 131 229 Zach WENDEL 262 02:00:30 00:17:31 00:05:25 00:04:54 01:09:25 12.1 m/hr 00:00:54 00:27:13 10:05 min/m
16 142 266 Jack MUNDEN 372 02:15:25 00:13:21 00:03:38 00:05:03 01:25:35 9.8 m/hr 00:01:32 00:31:17 11:35 min/m
17 145 273 Jonathan BRUBAKER 50 02:24:46 00:09:21 00:01:54 00:04:02 01:48:57 7.7 m/hr 00:00:38 00:23:53 8:51 min/m
18 148 280 Jordan MANGALINDAN 226 02:32:18 00:11:36 00:03:45 00:05:55 01:40:21 8.4 m/hr 00:01:17 00:35:17 13:04 min/m
Ages 30 - 34
Female
1 4 32 Monica BERRONDO 41 01:24:25 00:09:49 00:01:17 00:03:48 00:48:08 17.5 m/hr 00:00:59 00:24:11 8:57 min/m
2 12 53 Alison DAVIS 20 01:29:02 00:08:50 00:01:21 00:04:57 00:56:38 14.8 m/hr 00:00:56 00:21:14 7:52 min/m
3 14 64 Barbara GUARRIELLO 107 01:31:03 00:09:18 00:02:14 00:03:26 00:54:05 15.5 m/hr 00:01:44 00:23:40 8:46 min/m
4 21 79 Amy REYES 116 01:34:32 00:09:50 00:02:05 00:03:46 00:57:20 14.6 m/hr 00:01:26 00:23:49 8:49 min/m
5 23 86 Lindsey SPADIER 167 01:35:56 00:10:16 00:01:49 00:03:26 00:58:32 14.4 m/hr 00:00:38 00:24:39 9:08 min/m
6 32 111 Scout LANIER 191 01:38:58 00:11:23 00:02:21 00:04:03 00:59:27 14.1 m/hr 00:00:34 00:25:11 9:19 min/m
7 43 131 Dorothea EXELER-COOKE 61 01:41:17 00:10:43 00:02:27 00:04:03 00:59:29 14.1 m/hr 00:01:23 00:27:12 10:04 min/m
8 53 149 Kimberly THOMPSON 45 01:43:13 00:09:35 00:01:44 00:03:40 01:00:29 13.9 m/hr 00:01:59 00:29:24 10:53 min/m
9 60 160 Ekin OZDOGAN 142 01:45:21 00:12:50 00:02:30 00:03:54 00:59:36 14.1 m/hr 00:01:14 00:29:08 10:47 min/m
10 68 171 Michelle THOMPSON 249 01:47:38 00:10:42 00:03:27 00:04:31 01:08:03 12.3 m/hr 00:00:38 00:24:46 9:10 min/m
11 71 179 Jacqueline CORNELIUS 312 01:49:45 00:11:03 00:01:41 00:04:12 01:04:41 13.0 m/hr 00:00:59 00:31:18 11:35 min/m
12 73 185 Lauren LOZANO 225 01:51:13 00:10:27 00:03:27 00:04:03 01:04:19 13.1 m/hr 00:02:56 00:30:03 11:07 min/m
13 78 191 Natalie RICHARDSON 238 01:51:41 00:12:51 00:05:23 00:03:52 01:01:13 13.7 m/hr 00:04:03 00:28:10 10:26 min/m
14 85 205 Katrina DUKE 1 01:55:03 00:15:02 00:02:43 00:05:14 01:10:45 11.9 m/hr 00:02:35 00:23:57 8:52 min/m
15 89 211 Ashley SHUTE 344 01:56:19 00:13:12 00:05:34 00:04:18 01:06:27 12.6 m/hr 00:04:21 00:26:42 9:53 min/m
16 91 215 Annette GRAFF 209 01:56:57 00:13:41 00:02:54 00:04:48 01:08:50 12.2 m/hr 00:00:47 00:30:43 11:22 min/m
17 100 232 Rebecca IGLESIAS-FLORES 141 02:01:53 00:14:51 00:08:28 00:03:53 01:05:50 12.8 m/hr 00:04:51 00:27:53 10:19 min/m
18 101 233 Andrea ARREDONDO 193 02:02:06 00:15:09 00:04:09 00:05:25 01:13:43 11.4 m/hr 00:01:11 00:27:52 10:19 min/m
19 115 253 Melissa BUREK 184 02:10:29 00:17:25 00:04:36 00:04:52 01:14:41 11.2 m/hr 00:02:35 00:31:11 11:33 min/m
20 122 263 Lori LEHMBERG 354 02:14:17 00:13:51 00:03:05 00:05:44 01:24:42 9.9 m/hr 00:01:24 00:31:13 11:34 min/m
21 135 283 Whitney PUGH 171 02:37:20 00:18:43 00:09:33 00:06:12 01:27:08 9.6 m/hr 00:02:06 00:39:47 14:44 min/m
Male
1 7 7 Brad TARRILLION 31 01:12:20 00:07:22 00:00:41 00:03:00 00:44:39 18.8 m/hr 00:00:38 00:18:59 7:01 min/m
2 8 8 Scott DURAND 28 01:12:22 00:07:13 00:01:52 00:02:32          
3 16 17 Antonio LOPEZ 43 01:16:49 00:09:50 00:01:43 00:03:20 00:47:31 17.7 m/hr 00:01:05 00:16:38 6:09 min/m
4 23 25 Ricardo RENTERI 40 01:21:09 00:08:29 00:03:13 00:02:52 00:46:35 18.0 m/hr 00:01:29 00:21:20 7:54 min/m
5 26 28 Johnny DEVORA 363 01:21:36 00:10:01 00:02:00 00:02:57 00:49:05 17.1 m/hr 00:00:53 00:19:35 7:15 min/m
6 28 31 Jose VELA 10 01:23:43 00:08:11 00:01:07 00:03:04 00:53:33 15.7 m/hr 00:00:49 00:20:00 7:24 min/m
7 32 36 Mark OLSEN 75 01:24:56 00:09:24 00:01:50 00:03:08 00:49:30 17.0 m/hr 00:00:59 00:23:11 8:35 min/m
8 43 55 Stephen EXELER-COOKE 34 01:29:37 00:08:10 00:02:40 00:03:37 00:54:15 15.5 m/hr 00:01:38 00:22:51 8:27 min/m
9 52 69 Jason MCDONNELL 102 01:32:12 00:10:44 00:01:58 00:03:35 00:57:00 14.7 m/hr 00:00:45 00:21:44 8:02 min/m
10 64 88 Cristopher ESCALANTE 151 01:36:09 00:12:31 00:08:14 00:05:46 00:37:06 22.6 m/hr 00:04:16 00:34:00 12:35 min/m
11 71 97 Nick TARANTINO 371 01:36:58 00:10:33 00:03:21 00:03:36 01:01:08 13.7 m/hr 00:00:56 00:20:59 7:46 min/m
12 77 107 Kevin PEREZ 13 01:38:36 00:09:47 00:02:23 00:03:22 00:53:32 15.7 m/hr 00:01:42 00:31:10 11:32 min/m
13 93 144 Stephen AGAR 46 01:42:51 00:10:52 00:06:21 00:03:43 00:58:57 14.2 m/hr 00:01:34 00:25:04 9:17 min/m
14 94 145 Joseph DYER 314 01:42:54 00:10:59 00:02:16 00:03:34 01:03:06 13.3 m/hr 00:01:54 00:24:36 9:06 min/m
15 101 162 Michael SEIBERT 243 01:45:42 00:10:43 00:02:48 00:07:52 01:04:52 12.9 m/hr 00:00:51 00:26:26 9:47 min/m
16 108 177 Chris COLE 149 01:49:31 00:13:45 00:02:58 00:04:09 01:01:28 13.7 m/hr 00:01:27 00:29:51 11:03 min/m
17 109 180 Brandon KLUDT 324 01:49:47 00:12:29 00:02:45 00:05:42 01:04:24 13.0 m/hr 00:01:48 00:28:19 10:29 min/m
18 110 181 David MIRELES 231 01:49:58 00:11:06 00:02:12 00:04:29 01:13:06 11.5 m/hr 00:00:26 00:23:06 8:33 min/m
19 147 279 Danny PUGH 172 02:32:16 00:13:36 00:09:45 00:04:56 01:27:01 9.7 m/hr 00:02:10 00:39:42 14:42 min/m
Ages 35 - 39
Female
1 7 40 Andrea OWEN 77 01:26:05 00:09:42 00:01:09 00:03:19 00:52:19 16.1 m/hr 00:01:11 00:21:43 8:02 min/m
2 8 42 Heather KENNEDY 42 01:26:41 00:09:30 00:01:17   00:53:20 15.7 m/hr 00:01:04 00:21:28 7:57 min/m
3 10 48 Cecilia GUERRERO 108 01:27:54 00:13:22 00:01:32 00:03:03 00:49:35 16.9 m/hr 00:01:58 00:21:25 7:56 min/m
4 19 73 Holly JONES 186 01:33:10 00:09:57 00:01:54 00:03:32 00:53:54 15.6 m/hr 00:01:42 00:25:40 9:30 min/m
5 30 105 Jennifer THARP 169 01:38:18 00:11:09 00:02:55 00:03:43 01:00:28 13.9 m/hr 00:01:02 00:22:42 8:24 min/m
6 38 120 Suzy CASAS 27 01:39:55 00:09:01 00:01:53 00:04:05 01:02:28 13.4 m/hr 00:01:56 00:24:35 9:06 min/m
7 42 129 Anne Marie WISSMAN 93 01:41:01 00:09:53 00:03:16 00:04:06 00:59:38 14.1 m/hr 00:02:45 00:25:28 9:25 min/m
8 45 137 Sara AVERETT 305 01:42:16 00:10:54 00:02:20 00:04:18 00:57:45 14.5 m/hr 00:02:07 00:29:07 10:47 min/m
9 47 139 Elizabeth HEMOND 190 01:42:24 00:13:43 00:03:51 00:03:51 01:01:49 13.6 m/hr 00:00:45 00:22:13 8:13 min/m
10 58 157 Courtney BRUEGMANN 122 01:45:07 00:10:09 00:03:32 00:04:36 01:07:43 12.4 m/hr 00:00:56 00:22:45 8:25 min/m
11 64 166 Venus BECHER 273 01:46:30 00:13:55 00:03:16 00:04:20 01:01:00 13.8 m/hr 00:02:33 00:25:43 9:31 min/m
12 66 168 Brenda FERNANDEZ 62 01:46:40 00:11:02 00:01:26 00:04:25 01:02:49 13.4 m/hr 00:01:51 00:29:31 10:55 min/m
13 86 206 Jennifer YOUNG 95 01:55:32 00:12:53 00:02:21 00:04:40 01:10:24 11.9 m/hr 00:02:21 00:27:32 10:11 min/m
14 94 221 Elise BOLDT 183 01:57:57 00:12:57 00:04:12 00:04:43 01:05:37 12.8 m/hr 00:02:43 00:32:27 12:01 min/m
15 95 222 Faith DEBOW 21 01:58:48 00:09:10 00:04:34 00:05:21 01:17:19 10.9 m/hr 00:01:27 00:26:15 9:43 min/m
16 102 234 April SIMMONS 166 02:02:08 00:12:34 00:03:19 00:05:23 01:15:30 11.1 m/hr 00:02:45 00:27:57 10:21 min/m
17 104 236 Karen PEARSON 159 02:02:43 00:15:19 00:02:47 00:05:28 01:13:10 11.5 m/hr 00:00:58 00:30:26 11:16 min/m
18 129 274 Lisa ANDREWS 47 02:25:35 00:28:49 00:03:39 00:05:28 01:20:04 10.5 m/hr 00:02:20 00:30:41 11:22 min/m
19 134 282 Angie WATTS 254 02:34:27 00:19:05 00:04:49 00:05:58 01:23:12 10.1 m/hr 00:02:49 00:44:31 16:29 min/m
Male
1 3 3 Steve LINDAUER 12 01:09:11 00:07:00 00:01:02 00:02:35 00:41:39 20.2 m/hr 00:00:59 00:18:29 6:51 min/m
2 9 9 Brad BELLAMY 16 01:12:23 00:07:29 00:00:59 00:02:48 00:43:51 19.2 m/hr 00:00:37 00:19:25 7:11 min/m
3 12 13 Joshua ADAMS 302 01:14:24 00:09:12 00:01:33 00:03:13 00:47:35 17.6 m/hr 00:00:40 00:15:22 5:41 min/m
4 13 14 Matt MCSHAN 330 01:16:16 00:08:38 00:01:02   00:46:37 18.0 m/hr 00:00:47 00:19:10 7:06 min/m
5 47 60 Eric CHANDLER 199 01:30:14 00:10:38 00:01:21 00:03:45 00:58:10 14.4 m/hr 00:00:58 00:19:05 7:04 min/m
6 49 62 Brigham DUNN 265 01:30:56 00:16:35 00:03:10 00:03:19 00:49:06 17.1 m/hr 00:01:51 00:20:11 7:28 min/m
7 53 70 Chris OWEN 76 01:32:14 00:10:56 00:01:48 00:02:52 00:54:06 15.5 m/hr 00:01:14 00:24:07 8:56 min/m
8 56 76 Anthony RODRIGUEZ 85 01:34:06 00:10:31 00:01:52 00:03:57 00:55:37 15.1 m/hr 00:01:08 00:24:56 9:14 min/m
9 66 91 Doug MCCLENDON 329 01:36:27 00:09:55 00:01:08 00:03:51 00:59:59 14.0 m/hr 00:01:02 00:24:21 9:01 min/m
10 70 95 Chris WALL 117 01:36:49 00:10:46 00:07:21 00:03:35 00:54:32 15.4 m/hr 00:02:19 00:21:49 8:05 min/m
11 74 103 Benito SOTO 188 01:37:42 00:12:10 00:02:03 00:04:41 01:01:14 13.7 m/hr 00:00:38 00:21:36 8:00 min/m
12 76 106 Matthew BRYANT 176 01:38:28 00:12:19 00:01:52 00:03:24 00:59:19 14.2 m/hr 00:01:10 00:23:46 8:48 min/m
13 83 121 David PARTRIDGE 235 01:39:57 00:10:21 00:02:39 00:03:45 01:02:42 13.4 m/hr 00:01:17 00:22:56 8:29 min/m
14 86 127 Sabas SALGADO 368 01:40:40 00:11:07 00:01:37 00:04:02 01:03:12 13.3 m/hr 00:00:34 00:24:08 8:56 min/m
15 97 151 Mark WATTS 253 01:43:50 00:15:10 00:05:40 00:03:22 00:57:44 14.5 m/hr 00:02:03 00:23:11 8:35 min/m
16 114 193 Carlos MAESTAS 269 01:51:51 00:11:13 00:03:07 00:03:56 01:08:06 12.3 m/hr 00:01:42 00:27:40 10:15 min/m
17 121 207 Stephen WOLFORD 359 01:55:47 00:10:50 00:04:36 00:03:58 01:12:50 11.5 m/hr 00:01:14 00:26:15 9:43 min/m
18 125 216 Coty BUTCHER 197 01:57:09 00:13:53 00:02:59 00:04:46 01:06:15 12.7 m/hr 00:01:32 00:32:29 12:01 min/m
19 135 245 David CANTU 198 02:05:41 00:18:23 00:03:29 00:03:56 01:13:49 11.4 m/hr 00:01:55 00:28:03 10:23 min/m
20 137 247 Chris GREEN 153 02:06:41 00:16:16 00:03:39 00:06:19 01:15:44 11.1 m/hr 00:01:17 00:29:42 11:00 min/m
Ages 40 - 44
Female
1 6 39 Carla REID 105 01:25:52 00:09:49 00:01:21 00:03:10 00:50:31 16.6 m/hr 00:01:25 00:22:44 8:25 min/m
2 16 66 Ami DIKE 57 01:31:28 00:09:23 00:01:20 00:03:40 00:54:39 15.4 m/hr 00:01:22 00:24:43 9:09 min/m
3 24 87 Sharon ULLOA 261 01:36:04 00:12:04 00:02:05 00:03:30 00:55:27 15.1 m/hr 00:00:44 00:25:42 9:31 min/m
4 26 96 Trysha NICHOLS 129 01:36:55 00:10:25 00:02:26 00:03:31 00:55:36 15.1 m/hr 00:01:44 00:26:42 9:53 min/m
5 27 98 Renee CHRISTENSON 55 01:37:01 00:11:26 00:04:23 00:03:43 00:54:09 15.5 m/hr 00:02:42 00:24:19 9:00 min/m
6 40 125 Jeanne FRAGA 182 01:40:32 00:11:52 00:02:29 00:03:58 00:57:47 14.5 m/hr 00:01:24 00:26:57 9:58 min/m
7 54 150 Melissa SANKEY 240 01:43:50 00:14:29 00:02:13 00:03:36 01:05:08 12.9 m/hr 00:00:43 00:21:15 7:52 min/m
8 56 154 Aubrey BEAVER 48 01:44:01 00:11:51 00:02:00 00:03:58 01:00:08 14.0 m/hr 00:03:37 00:26:23 9:46 min/m
9 57 156 Dejah HESS 22 01:44:32 00:08:53 00:02:06 00:04:43 01:02:53 13.4 m/hr 00:01:15 00:29:24 10:53 min/m
10 59 158 Jennifer JAGIELKO 127 01:45:11 00:11:19 00:01:39 00:03:46 01:01:16 13.7 m/hr 00:01:24 00:29:31 10:55 min/m
11 65 167 Kelly SAMS 87 01:46:35 00:11:52 00:01:48 00:05:16 01:03:53 13.1 m/hr 00:01:08 00:27:52 10:19 min/m
12 70 178 Lisa MCCABE 355 01:49:41 00:13:24 00:01:36 00:04:23 00:59:38 14.1 m/hr 00:02:14 00:32:47 12:08 min/m
13 77 190 Sonya FREITAS 152 01:51:26 00:10:22 00:07:15 00:04:38 01:03:03 13.3 m/hr 00:03:15 00:27:30 10:11 min/m
14 80 195 Tiffany HOFBAUER 66 01:52:21 00:11:47 00:01:57 00:04:21 01:07:54 12.4 m/hr 00:00:50 00:29:50 11:03 min/m
15 82 199 Mary ROSS 133 01:53:22 00:13:20 00:06:28 00:05:39 01:04:45 13.0 m/hr 00:02:58 00:25:49 9:33 min/m
16 88 209 Stella HORSUP 217 01:56:17 00:16:26 00:01:56 00:04:05 01:06:23 12.7 m/hr 00:01:34 00:29:57 11:05 min/m
17 98 227 Jancey TERRY 347 02:00:07 00:18:20 00:04:37 00:04:04 01:00:48 13.8 m/hr 00:01:37 00:34:43 12:51 min/m
18 103 235 Suzanne MATA 97 02:02:23                
19 113 251 Gina GREEN 154 02:07:22 00:12:01 00:04:08 00:04:48 01:12:40 11.6 m/hr 00:01:43 00:36:49 13:38 min/m
20 130 275 Anel POND 80 02:25:59 00:29:18 00:03:40 00:05:40 01:20:13 10.5 m/hr 00:02:09 00:30:37 11:20 min/m
21 131 276 Jennifer POWNER 7 02:26:09 00:29:29 00:03:37 00:05:25 01:20:00 10.5 m/hr 00:02:27 00:30:35 11:19 min/m
22 136 284 Jessica SANDERS 292 02:37:31 00:12:39 00:04:26 00:05:33 01:41:56 8.2 m/hr 00:01:20 00:37:08 13:45 min/m
Male
1 5 5 James EASTLAND 360 01:10:54 00:08:58 00:00:48 00:02:36 00:42:53 19.6 m/hr 00:00:41 00:17:32 6:29 min/m
2 14 15 John SCHWAB 366 01:16:43 00:08:51 00:00:38 00:03:33 00:46:24 18.1 m/hr 00:00:51 00:19:58 7:23 min/m
3 20 22 Jack PANESAR 39 01:20:10 00:10:02 00:01:23 00:02:59 00:48:25 17.3 m/hr 00:01:00 00:19:18 7:08 min/m
4 30 34 Malte BRUEGMANN 17 01:24:42 00:07:59 00:01:29   00:52:34 16.0 m/hr 00:00:46 00:21:52 8:06 min/m
5 68 93 Dante DIZA 58 01:36:38 00:13:20 00:02:13 00:03:44 00:57:13 14.7 m/hr 00:01:48 00:22:01 8:09 min/m
6 69 94 Don WHITAKER 118 01:36:41 00:14:05 00:04:00 00:04:53 00:54:54 15.3 m/hr 00:01:52 00:21:48 8:04 min/m
7 85 124 Tom TREVINO 296 01:40:27 00:10:26 00:02:55 00:08:06 01:00:20 13.9 m/hr 00:01:35 00:25:09 9:19 min/m
8 90 134 Eric DAVIDSON 202 01:41:28 00:09:29 00:02:38 00:03:37 01:04:17 13.1 m/hr 00:00:59 00:24:02 8:54 min/m
9 92 136 Lothar HOFBAUER 67 01:42:08 00:11:07 00:02:15 00:04:10 00:59:16 14.2 m/hr 00:01:50 00:27:38 10:14 min/m
10 98 153 Matt PETERSON 111 01:43:53 00:10:59 00:03:55 00:04:10 00:59:56 14.0 m/hr 00:01:39 00:27:21 10:08 min/m
11 115 194 Scott FRASARD 185 01:52:03 00:11:26 00:03:38 00:05:11 01:01:31 13.7 m/hr 00:02:52 00:32:34 12:03 min/m
12 116 197 Karl CLAUSEWITZ 123 01:52:33 00:13:16 00:03:33 00:05:42 01:08:57 12.2 m/hr 00:01:13 00:25:32 9:27 min/m
13 124 213 David SAMS 86 01:56:37 00:11:45 00:03:27 00:03:57 01:05:25 12.8 m/hr 00:01:02 00:34:56 12:56 min/m
14 132 230 Vernon HICKS 298 02:01:09 00:14:49 00:02:20 00:04:30 01:08:08 12.3 m/hr 00:01:24 00:34:26 12:45 min/m
15 141 261 Todd PELTIER 131 02:12:28 00:15:49 00:02:15 00:04:25 01:18:08 10.7 m/hr 00:01:33 00:34:42 12:51 min/m
16 143 267 John MONTOYA 281 02:16:25 00:20:16 00:04:57 00:05:38 01:13:30 11.4 m/hr 00:01:53 00:35:47 13:15 min/m
Ages 45 - 49
Female
1 15 65 Sabrina FAMAGALLI 357 01:31:18 00:10:20 00:01:33 00:03:32 00:54:05 15.5 m/hr 00:01:08 00:24:10 8:57 min/m
2 22 84 Allison MOYER 158 01:35:38 00:10:48 00:01:52 00:03:45 00:57:00 14.7 m/hr 00:01:01 00:24:56 9:14 min/m
3 25 90 Erica NIERTH 74 01:36:21 00:10:05 00:02:18 00:03:45 00:58:49 14.3 m/hr 00:01:41 00:23:26 8:40 min/m
4 34 113 Monica MADERO 23 01:39:05 00:09:43 00:01:40 00:05:22 01:01:22 13.7 m/hr 00:01:09 00:25:09 9:19 min/m
5 36 115 Nancy FINNEY 63 01:39:24 00:13:00 00:05:34 00:03:46 00:56:28 14.9 m/hr 00:02:27 00:21:52 8:06 min/m
6 46 138 Victoria RODRIGUEZ 239 01:42:23 00:14:16 00:02:17 00:04:05 00:59:30 14.1 m/hr 00:02:18 00:24:00 8:53 min/m
7 48 140 Maribel VELEZ 98 01:42:24 00:11:41 00:01:47 00:03:59 01:03:12 13.3 m/hr 00:02:21 00:23:22 8:39 min/m
8 49 141 Deborah MAHAR GARCIA 356 01:42:32 00:13:30 00:02:38 00:04:06 01:01:59 13.5 m/hr 00:02:09 00:22:14 8:14 min/m
9 50 142 Michelle HOPSON 216 01:42:39 00:13:00 00:01:02 00:03:55 00:57:58 14.5 m/hr 00:01:50 00:28:48 10:40 min/m
10 69 174 Jennifer RETZLOFF 339 01:49:01                
11 123 264 Krista RICHARDS 340 02:15:03 00:15:16 00:03:29 00:05:38 01:26:31 9.7 m/hr 00:02:00 00:27:45 10:16 min/m
12 126 269 Shelly GREEN 125 02:20:13 00:12:11 00:04:17 00:06:15 01:21:27 10.3 m/hr 00:01:40 00:40:35 15:02 min/m
13 132 277 Shelly PENNER 237 02:28:30 00:12:49 00:06:20 00:05:11 01:24:24 10.0 m/hr 00:07:43 00:37:11 13:46 min/m
Male
1 4 4 Josh BUSBY 309 01:10:43 00:07:41 00:01:08 00:02:34 00:42:22 19.8 m/hr 00:00:39 00:18:50 6:58 min/m
2 6 6 Robert SCHAFER 15 01:11:25 00:08:14 00:01:18 00:02:34 00:42:11 19.9 m/hr 00:01:18 00:18:22 6:48 min/m
3 17 18 Jose FLORES 361 01:17:05 00:09:11 00:01:14 00:08:28 00:45:08 18.6 m/hr 00:00:39 00:20:51 7:43 min/m
4 27 29 David GUARRIELLO 65 01:21:57 00:09:00 00:01:18 00:03:14 00:49:43 16.9 m/hr 00:01:10 00:20:45 7:41 min/m
5 33 37 Forrest WIGGINS 170 01:25:20 00:10:57 00:02:15 00:02:57 00:46:11 18.2 m/hr 00:01:25 00:24:31 9:04 min/m
6 35 43 David HORSUP 68 01:26:50 00:09:50 00:01:34 00:03:20 00:50:18 16.7 m/hr 00:00:46 00:24:21 9:01 min/m
7 37 46 John SHEPPERD 283 01:27:03 00:09:54 00:03:25 00:03:14 00:49:33 16.9 m/hr 00:01:44 00:22:25 8:18 min/m
8 42 54 Lawrence BURCH 147 01:29:30 00:09:34 00:02:34 00:02:58 00:53:26 15.7 m/hr 00:02:06 00:21:49 8:04 min/m
9 46 58 John CARPENTER 54 01:30:00 00:09:50 00:02:52 00:03:12 00:51:41 16.3 m/hr 00:01:15 00:24:20 9:00 min/m
10 57 77 Albert LONGORIA 145 01:34:12 00:12:12 00:02:24 00:03:12 00:55:25 15.2 m/hr 00:01:53 00:22:15 8:14 min/m
11 60 81 Matthew JAGIELKO 128 01:35:08 00:10:38 00:01:58   00:57:22 14.6 m/hr 00:00:49 00:24:19 9:00 min/m
12 81 118 Victor CITRON 200 01:39:30 00:08:09 00:03:27 00:03:31 00:53:53 15.6 m/hr 00:04:33 00:29:26 10:54 min/m
13 82 119 John EVANS 60 01:39:43 00:07:42 00:04:08 00:04:17 01:00:20 13.9 m/hr 00:00:47 00:26:45 9:54 min/m
14 96 148 Michael SERNA 244 01:43:08 00:12:59 00:04:56 00:04:20 00:58:56 14.3 m/hr 00:02:15 00:24:01 8:53 min/m
15 102 165 Stuart LINDLAND 362 01:45:52 00:10:27 00:04:12 00:04:37 01:07:47 12.4 m/hr 00:01:23 00:22:01 8:09 min/m
16 112 184 Mark CRANIS 150 01:50:35 00:13:18 00:02:33 00:04:11 01:04:10 13.1 m/hr 00:00:50 00:29:41 10:59 min/m
17 118 200 Rob FINNEY 206 01:53:31 00:18:26 00:06:30 00:04:41 00:58:31 14.4 m/hr 00:01:48 00:28:14 10:27 min/m
18 122 210 John STARK 245 01:56:18 00:09:58 00:03:31 00:04:12 01:10:58 11.8 m/hr 00:02:34 00:29:15 10:50 min/m
19 123 212 John WETHEROLD 91 01:56:27 00:12:20 00:02:19 00:04:42 01:12:49 11.5 m/hr 00:02:30 00:26:28 9:48 min/m
Ages 50 - 54
Female
1 18 72 Debie CLINEBELL 36 01:32:54 00:10:08 00:01:50 00:03:34 00:54:21 15.5 m/hr 00:01:25 00:25:08 9:18 min/m
2 28 99 Nina STANFIELD 88 01:37:07 00:09:51 00:01:08 00:03:48 00:57:28 14.6 m/hr 00:01:16 00:27:22 10:08 min/m
3 31 109 Teresa OGG 115 01:38:48 00:10:48 00:01:43 00:03:58 00:57:52 14.5 m/hr 00:00:57 00:27:26 10:09 min/m
4 33 112 Mona POWER 160 01:39:03 00:12:37 00:03:31 00:03:19 00:55:57 15.0 m/hr 00:01:48 00:25:08 9:18 min/m
5 63 164 Karen RAY 338 01:45:45 00:12:35 00:03:01 00:03:31 00:58:53 14.3 m/hr 00:01:57 00:29:18 10:51 min/m
6 83 201 Yvonne BAYS 99 01:53:32 00:10:44 00:02:12 00:04:21 01:10:28 11.9 m/hr 00:01:24 00:28:42 10:37 min/m
7 87 208 Lisa KEEFE 219 01:56:14 00:18:43 00:04:05 00:04:36 01:01:27 13.7 m/hr 00:02:08 00:29:49 11:02 min/m
8 97 225 Jennifer RAVENSCROFT 81 01:59:27 00:17:40 00:02:38 00:04:46 01:05:43 12.8 m/hr 00:01:47 00:31:37 11:42 min/m
9 108 240 Laura WINGFIELD 297 02:03:14 00:15:11 00:03:43 00:04:11 01:11:24 11.8 m/hr 00:02:10 00:30:44 11:23 min/m
10 112 250 Donna FOLEY 207 02:07:05 00:17:10 00:04:04 00:04:28 01:13:39 11.4 m/hr 00:02:45 00:29:26 10:54 min/m
11 124 265 Christiana HEWITT 213 02:15:11 00:12:02 00:03:50 00:05:14 01:18:47 10.7 m/hr 00:06:25 00:34:05 12:37 min/m
Male
1 29 33 Kenneth ROBILLARD 84 01:24:39 00:09:18 00:02:24 00:03:20 00:46:36 18.0 m/hr 00:02:00 00:24:19 9:00 min/m
2 41 52 Joseph BONUGLI 49 01:28:52 00:08:42 00:02:30 00:02:54 00:50:10 16.7 m/hr 00:03:22 00:24:06 8:55 min/m
3 48 61 Harry SHARKIS 26 01:30:54 00:10:16 00:01:31 00:03:25 00:54:20 15.5 m/hr 00:01:11 00:23:33 8:43 min/m
4 50 63 Toxie ANDREWS 303 01:30:56 00:09:37 00:01:28 00:03:35 00:51:33 16.3 m/hr 00:02:27 00:25:49 9:33 min/m
5 59 80 Robert MEGERLE 73 01:34:47 00:09:15 00:02:42 00:03:41 00:56:20 14.9 m/hr 00:01:41 00:24:47 9:10 min/m
6 61 82 Robert FENSKE 352 01:35:29 00:10:37 00:02:13 00:03:43 00:56:33 14.9 m/hr 00:00:49 00:25:16 9:21 min/m
7 62 83 Karl KLOSE 353 01:35:29 00:08:37 00:02:25 00:03:24 00:56:37 14.8 m/hr 00:02:03 00:25:46 9:32 min/m
8 65 89 Robert HOPSON 155 01:36:13 00:12:00 00:00:59   00:54:50 15.3 m/hr 00:01:44 00:26:39 9:52 min/m
9 87 128 Steve YOUNG 256 01:40:57 00:14:53 00:02:49 00:03:15 00:54:02 15.5 m/hr 00:01:33 00:27:38 10:14 min/m
10 89 132 Gil TUAZON 351 01:41:17 00:19:36 00:04:22 00:03:09 00:48:49 17.2 m/hr 00:01:55 00:26:33 9:50 min/m
11 99 155 James YOUNG 94 01:44:12 00:12:12 00:03:04 00:04:13 00:59:25 14.1 m/hr 00:02:58 00:26:31 9:49 min/m
12 113 188 Dwayne SELLERS 192 01:51:19 00:11:28 00:03:13 00:04:57 01:05:30 12.8 m/hr 00:02:00 00:29:07 10:47 min/m
13 120 203 Kevin WHITE 4 01:54:52 00:14:53 00:02:40 00:04:37 01:10:42 11.9 m/hr 00:02:37 00:23:57 8:52 min/m
14 134 244 Robert KEEFE 220 02:05:39 00:14:27 00:04:41 00:05:05 01:07:44 12.4 m/hr 00:03:20 00:35:25 13:07 min/m
15 136 246 Arthur YOUNG 284 02:06:03 00:15:17 00:05:26 00:05:04 01:04:11 13.1 m/hr 00:04:29 00:36:38 13:34 min/m
16 146 278 Curt FINCH 205 02:28:52 00:13:03 00:05:07 00:06:24 01:24:46 9.9 m/hr 00:01:48 00:44:06 16:20 min/m
Ages 55 - 59
Female
1 29 102 Annabel SPARKMAN 14 01:37:41 00:08:48 00:01:42 00:04:01 00:59:10 14.2 m/hr 00:01:14 00:26:45 9:54 min/m
2 44 133 Tracy SCHULEMAN 112 01:41:27 00:10:55 00:02:37 00:05:32 00:59:55 14.0 m/hr 00:02:26 00:25:32 9:27 min/m
3 51 143 Donna ESCOBAR 364 01:42:42 00:14:04 00:01:41 00:04:02 00:55:39 15.1 m/hr 00:01:27 00:29:49 11:02 min/m
4 62 163 Margaret RUSSELL 134 01:45:44 00:12:11 00:02:22 00:04:53 01:02:02 13.5 m/hr 00:01:38 00:27:29 10:10 min/m
5 72 183 Lisa BRIMBERRY 140 01:50:17 00:12:38 00:04:38 00:04:13 01:02:29 13.4 m/hr 00:01:55 00:28:36 10:35 min/m
6 74 186 Sheri MCCOY 358 01:51:13 00:14:41 00:02:09 00:05:17 01:03:51 13.2 m/hr 00:01:44 00:28:47 10:39 min/m
7 92 218 Yuvon ROBIN 163 01:57:32 00:13:17 00:02:14 00:04:52 01:09:59 12.0 m/hr 00:00:50 00:31:10 11:32 min/m
8 107 239 Mary STICH 246 02:03:04 00:12:39 00:02:41 00:04:24 01:11:01 11.8 m/hr 00:02:54 00:33:47 12:30 min/m
9 117 255 Callie JACKS 156 02:10:45 00:12:47 00:02:56 00:04:38 01:14:23 11.3 m/hr 00:01:55 00:38:40 14:19 min/m
10 127 270 Karen CAMPBELL 114 02:20:22 00:18:24 00:01:17 00:06:15 01:27:25 9.6 m/hr 00:03:34 00:29:41 10:59 min/m
Male
1 10 10 Joe HALLATSCHEK 320 01:12:26 00:07:42 00:00:43 00:02:54 00:40:41 20.6 m/hr 00:00:42 00:22:36 8:22 min/m
2 19 21 David HARRIS 44 01:20:02 00:09:53 00:00:45 00:03:04 00:47:17 17.8 m/hr 00:00:39 00:21:26 7:56 min/m
3 34 41 David BRIMBERRY 96 01:26:35 00:10:18 00:01:41 00:03:11 00:51:37 16.3 m/hr 00:01:16 00:21:41 8:02 min/m
4 45 57 John LEONARD 38 01:29:56 00:08:43 00:01:55 00:03:33 00:54:10 15.5 m/hr 00:00:56 00:24:10 8:57 min/m
5 75 104 Bob SIMS 259 01:38:13 00:11:40 00:02:12 00:03:46 00:55:18 15.2 m/hr 00:02:09 00:26:51 9:57 min/m
6 80 116 Jim WICKENS 350 01:39:26 00:14:15 00:03:34 00:04:19 00:56:29 14.9 m/hr 00:00:53 00:24:13 8:58 min/m
7 103 169 Michael MCCARTHY 229 01:46:48 00:11:46 00:06:04 00:04:16 01:00:02 14.0 m/hr 00:02:50 00:26:05 9:39 min/m
8 119 202 Ted BRUMLEVE 146 01:53:44 00:12:17 00:02:24 00:04:03 01:03:15 13.3 m/hr 00:01:15 00:34:32 12:47 min/m
9 128 223 Dennis BURZYNSKI 196 01:59:05 00:12:15 00:03:00 00:04:48 01:10:31 11.9 m/hr 00:01:16 00:32:00 11:51 min/m
Ages 60 - 64
Female
1 79 192 Francyne UNDERWOOD 189 01:51:50 00:14:25 00:02:31 00:04:18 01:04:50 13.0 m/hr 00:01:29 00:28:33 10:34 min/m
2 81 196 Maureen REININGER 143 01:52:28 00:13:39 00:02:26 00:04:35 01:06:03 12.7 m/hr 00:01:55 00:28:22 10:30 min/m
Male
1 18 19 John MANGAN 110 01:17:57 00:10:07 00:00:42 00:02:46 00:44:42 18.8 m/hr 00:00:56 00:21:27 7:56 min/m
2 25 27 Eugene KOSTKA 275 01:21:15 00:09:18 00:01:16 00:03:03 00:47:53 17.5 m/hr 00:00:59 00:21:48 8:04 min/m
3 58 78 William PECKHAM 104 01:34:26 00:11:02 00:03:00 00:03:18 00:53:16 15.8 m/hr 00:01:54 00:25:11 9:19 min/m
4 63 85 Bill MONTGOMERY 157 01:35:52 00:12:44 00:01:37 00:03:26 00:52:01 16.1 m/hr 00:01:24 00:28:04 10:23 min/m
5 84 123 Randy OHMAN 336 01:40:03 00:16:00 00:05:26 00:05:07 00:55:29 15.1 m/hr 00:02:05 00:21:01 7:47 min/m
6 91 135 Jim FOLEY 64 01:42:01 00:11:30 00:02:49 00:04:08 01:01:15 13.7 m/hr 00:02:01 00:24:24 9:02 min/m
Ages 65 - 69
Female
1 133 281 Miriam RAVIV 162 02:33:44 00:14:22 00:02:24 00:06:30 01:20:19 10.5 m/hr 00:03:00 00:53:37 19:51 min/m
Male
1 40 51 David BOYETTE 276 01:28:38 00:09:28 00:01:26 00:03:19 00:50:12 16.7 m/hr 00:01:55 00:25:34 9:28 min/m
2 73 101 Bill PIATT 30 01:37:36 00:11:44 00:02:45 00:04:01 00:58:21 14.4 m/hr 00:00:46 00:23:58 8:52 min/m
Fat Tire
Female
1 84 204 Dawn WILLIAMSON 255 01:55:03 00:11:13 00:03:15 00:04:43 01:10:42 11.9 m/hr 00:00:48 00:29:02 10:45 min/m
2 116 254 Madeline BISESTI 174 02:10:31 00:11:10 00:02:50 00:05:10 01:27:02 9.7 m/hr 00:03:21 00:26:05 9:39 min/m
Male
1 95 146 Taylor DUNN 203 01:42:56 00:11:00 00:03:15 00:04:21 00:56:54 14.8 m/hr 00:02:27 00:29:19 10:51 min/m
2 100 159 David FAVER 316 01:45:12 00:11:11 00:03:12 00:04:14 01:00:49 13.8 m/hr 00:02:16 00:27:43 10:15 min/m
3 104 172 Jon BENFIELD 194 01:48:24 00:10:54 00:04:25 00:03:54 01:00:56 13.8 m/hr 00:04:30 00:27:36 10:13 min/m
4 139 256 Jeff DAVIS 175 02:10:46 00:11:23 00:02:53 00:03:51 01:26:51 9.7 m/hr 00:03:31 00:26:06 9:40 min/m
5 140 257 Thomas BALLENGER 173 02:10:57 00:11:35 00:02:54 00:05:00 01:27:25 9.6 m/hr 00:02:47 00:26:14 9:43 min/m
2-Person Relay
1 21 23 3 FAST 3 FURIOUS 139 01:20:12 00:09:54 00:01:01 00:02:53 00:45:35 18.4 m/hr 00:00:30 00:23:11 8:35 min/m
2 31 35 TEAM J&L 343 01:24:46 00:13:16 00:00:49 00:02:24 00:47:35 17.7 m/hr 00:01:30 00:21:35 7:59 min/m
3 111 182 TEAM M&E 342 01:50:08 00:14:45 00:03:23 00:03:49 00:58:14 14.4 m/hr 00:02:06 00:31:38 11:43 min/m
4 150 286 SANDERS WELLS 294 02:40:06 00:20:58 00:01:10   01:37:58 8.6 m/hr 00:00:36 00:39:22 14:34 min/m
3-Person Relay
1 15 16 FLAMING POSSUMS OF AWESOMENESS 18 01:16:48 00:07:59 00:00:29 00:03:04 00:49:43 16.9 m/hr 00:00:25 00:18:11 6:44 min/m
2 72 100 WABNITZ FAMILY 8 01:37:12 00:08:45 00:00:34 00:03:30 01:00:35 13.9 m/hr 00:00:32 00:26:43 9:53 min/m
3 106 175 TRI FOR BEER 29 01:49:12 00:09:59 00:01:31 00:04:46 01:13:02 11.5 m/hr 00:00:33 00:24:06 8:55 min/m
4 127 220 TRI-DASHIANS 106 01:57:51 00:11:31 00:00:50 00:04:55 01:12:08 11.6 m/hr 00:00:55 00:32:25 12:00 min/m
5 133 241 TRI-FECTA 148 02:03:30 00:13:11 00:00:57 00:04:00 01:14:41 11.2 m/hr 00:00:31 00:34:08 12:38 min/m
6 138 248 TRIFORCE 82 02:06:47 00:10:12 00:00:58 00:04:28 01:14:39 11.3 m/hr 00:00:38 00:40:18 14:55 min/m
Please See Timer
Male
1 144 272 Brandon PEDRAZA 236 02:22:41 00:16:06 00:04:18 00:06:23 01:26:24 9.7 m/hr 00:02:09 00:33:42 12:29 min/m
Chip Timing by RRPTiming.com!

 

[ Tri ] [ Swim/Bike] [ Swim/Run ] [ Bike/Run ]

2015 Wurst Tri Ever
Bike/Run Results
Gender
Pos
Overall
Pos
Name Race No Finish
Time
Bike Bike
Pace
Transition Run Run Pace
Female
1 3 Ginny LUXTON 138 01:15:28 00:50:09 16.8 m/hr 00:01:08 00:24:12 8:57 min/m
2 6 Mindy SWANSON 121 01:22:01 00:57:03 14.7 m/hr 00:01:06 00:23:53 8:50 min/m
3 9 Denice TREVINO 250 01:33:48 01:09:03 12.2 m/hr 00:00:47 00:23:59 8:52 min/m
4 10 Karli MONTGOMERY 299 01:47:16 01:10:00 12.0 m/hr 00:02:15 00:35:02 12:58 min/m
5 11 Rebekah LLAMAS 325 01:58:35 01:18:47 10.7 m/hr 00:01:27 00:38:22 14:12 min/m
6 12 Tracy COCCIA 311 01:58:36 01:18:46 10.7 m/hr 00:01:27 00:38:24 14:13 min/m
Male
1 1 Michael BEDARD 307 01:08:57 00:47:06 17.8 m/hr 00:01:53 00:19:59 7:23 min/m
2 2 R+áyland LUXTON 137 01:10:41 00:48:19 17.4 m/hr 00:01:04 00:21:19 7:53 min/m
3 4 Brian MOYER 333 01:16:46 00:52:34 16.0 m/hr 00:01:10 00:23:03 8:32 min/m
4 5 James CLINEBELL 201 01:18:01 00:51:13 16.4 m/hr 00:01:36 00:25:14 9:20 min/m
5 7 Bobby MILLER 367 01:22:13 00:58:11 14.4 m/hr 00:01:25 00:22:38 8:22 min/m
6 8 Hernan JIMENEZ 218 01:33:28 01:02:37 13.4 m/hr 00:00:46 00:30:07 11:09 min/m
Chip Timing by RRPTiming.com!

 

[ Tri ] [ Swim/Bike] [ Swim/Run ] [ Bike/Run ]

2015 Wurst Tri Ever
Swim/Bike Results
Gender
Pos
Overall
Pos
Name Race No Finish
Time
Swim Transition Bike Bike
Pace
Female
1 3 Chris PIATT 79 01:12:47 00:12:40 00:02:37 00:57:28 14.6 m/hr
2 4 Davina FARRELL 315 01:15:04 00:10:11 00:02:27 01:02:24 13.5 m/hr
3 6 Ann VITT 349 01:16:07 00:09:54 00:01:20 01:04:53 12.9 m/hr
4 8 Cathy SORSBY 187 01:26:54 00:13:04 00:02:24 01:11:25 11.8 m/hr
5 9 Donna TROY 251 01:28:20 00:13:13 00:03:04 01:12:02 11.7 m/hr
6 10 Courtney HILL 101 01:34:49 00:10:38 00:03:04 01:21:06 10.4 m/hr
7 11 Sarah BENNETT 308 01:43:08 00:15:45 00:01:15 01:26:07 9.8 m/hr
Male
1 1 Bill HORN 321 00:53:44 00:07:51 00:01:23 00:44:29 18.9 m/hr
2 2 Orb GREENWALD 210 00:55:42 00:08:20 00:01:27 00:45:54 18.3 m/hr
3 5 Robert HARDER 211 01:15:40 00:15:42 00:02:07 00:57:49 14.5 m/hr
4 7 Jeff BEAVER 369 01:16:36 00:09:20 00:03:19 01:03:56 13.1 m/hr
Chip Timing by RRPTiming.com!

 

[ Tri ] [ Swim/Bike] [ Swim/Run ] [ Bike/Run ]

2015 Wurst Tri Ever
Swim/Run Results
Gender
Pos
Overall
Pos
Name Race No Finish
Time
Swim Transition Run Run
Pace
Gender : Female
1 2 Kelly SELLS 11 00:39:04.00 00:08:59.00 00:01:44.00 00:28:22.00 10:30 min/m
2 3 Megan DOBY 313 00:45:14.00 00:09:00.00 00:02:50.00 00:33:25.00 12:22 min/m
3 5 Kim OERKFITZ 233 00:59:45.00 00:09:47.00 00:23:49.00 00:26:10.00 9:41 min/m
4 6 Jody KELLY 323 01:06:39.00 00:17:37.00 00:02:29.00 00:46:33.00 17:14 min/m
Male
1 1 Brent HOLLINGSWORTH 215 00:29:15.00 00:10:31.00 00:01:20.00 00:17:25.00 6:26 min/m
2 4 Bob STUIFBERGEN 89 00:57:43.00 00:11:10.00 00:03:38.00 00:42:55.00 15:53 min/m
Chip Timing by RRPTiming.com!

 

© copyright 2013, RRPTiming.com. RRPTiming is a Redemption Race Productions site. Website by Rich.